sensor_id;sensor_type;location;lat;lon;timestamp;P1;durP1;ratioP1;P2;durP2;ratioP2
56255;SDS011;57229;51.432;-2.598;2023-02-28T00:01:20;8.27;;;5.82;;
56255;SDS011;57229;51.432;-2.598;2023-02-28T00:03:46;9.32;;;5.80;;
56255;SDS011;57229;51.432;-2.598;2023-02-28T00:06:12;12.05;;;6.20;;
56255;SDS011;57229;51.432;-2.598;2023-02-28T00:08:38;7.75;;;5.20;;
56255;SDS011;57229;51.432;-2.598;2023-02-28T00:11:09;8.88;;;5.85;;
56255;SDS011;57229;51.432;-2.598;2023-02-28T00:13:39;11.82;;;5.88;;
56255;SDS011;57229;51.432;-2.598;2023-02-28T00:16:08;9.43;;;5.43;;
56255;SDS011;57229;51.432;-2.598;2023-02-28T00:18:36;9.52;;;5.50;;
56255;SDS011;57229;51.432;-2.598;2023-02-28T00:21:02;10.68;;;5.60;;
56255;SDS011;57229;51.432;-2.598;2023-02-28T00:23:28;9.70;;;5.70;;
56255;SDS011;57229;51.432;-2.598;2023-02-28T00:25:54;8.55;;;5.35;;
56255;SDS011;57229;51.432;-2.598;2023-02-28T00:28:21;6.50;;;5.57;;
56255;SDS011;57229;51.432;-2.598;2023-02-28T00:30:47;7.32;;;5.38;;
56255;SDS011;57229;51.432;-2.598;2023-02-28T00:33:13;9.02;;;5.70;;
56255;SDS011;57229;51.432;-2.598;2023-02-28T00:35:42;8.30;;;5.88;;
56255;SDS011;57229;51.432;-2.598;2023-02-28T00:38:14;12.68;;;5.80;;
56255;SDS011;57229;51.432;-2.598;2023-02-28T00:40:40;8.25;;;5.40;;
56255;SDS011;57229;51.432;-2.598;2023-02-28T00:43:06;11.38;;;5.80;;
56255;SDS011;57229;51.432;-2.598;2023-02-28T00:45:32;7.88;;;5.60;;
56255;SDS011;57229;51.432;-2.598;2023-02-28T00:47:57;8.48;;;5.90;;
56255;SDS011;57229;51.432;-2.598;2023-02-28T00:50:23;12.88;;;6.28;;
56255;SDS011;57229;51.432;-2.598;2023-02-28T00:52:49;9.23;;;6.10;;
56255;SDS011;57229;51.432;-2.598;2023-02-28T00:55:15;11.07;;;6.15;;
56255;SDS011;57229;51.432;-2.598;2023-02-28T00:57:41;13.85;;;5.93;;
56255;SDS011;57229;51.432;-2.598;2023-02-28T01:00:07;6.85;;;5.20;;
56255;SDS011;57229;51.432;-2.598;2023-02-28T01:02:33;11.55;;;5.53;;
56255;SDS011;57229;51.432;-2.598;2023-02-28T01:04:59;7.05;;;5.28;;
56255;SDS011;57229;51.432;-2.598;2023-02-28T01:07:25;9.73;;;6.13;;
56255;SDS011;57229;51.432;-2.598;2023-02-28T01:09:51;9.88;;;5.40;;
56255;SDS011;57229;51.432;-2.598;2023-02-28T01:12:17;10.85;;;5.28;;
56255;SDS011;57229;51.432;-2.598;2023-02-28T01:14:43;8.85;;;5.53;;
56255;SDS011;57229;51.432;-2.598;2023-02-28T01:17:08;7.63;;;5.88;;
56255;SDS011;57229;51.432;-2.598;2023-02-28T01:19:34;10.35;;;5.68;;
56255;SDS011;57229;51.432;-2.598;2023-02-28T01:22:03;9.00;;;5.20;;
56255;SDS011;57229;51.432;-2.598;2023-02-28T01:24:30;11.95;;;5.65;;
56255;SDS011;57229;51.432;-2.598;2023-02-28T01:26:56;10.00;;;5.90;;
56255;SDS011;57229;51.432;-2.598;2023-02-28T01:29:22;12.75;;;6.10;;
56255;SDS011;57229;51.432;-2.598;2023-02-28T01:31:48;10.38;;;5.93;;
56255;SDS011;57229;51.432;-2.598;2023-02-28T01:34:13;13.40;;;5.82;;
56255;SDS011;57229;51.432;-2.598;2023-02-28T01:36:39;11.93;;;6.32;;
56255;SDS011;57229;51.432;-2.598;2023-02-28T01:39:05;14.40;;;6.55;;
56255;SDS011;57229;51.432;-2.598;2023-02-28T01:41:32;9.43;;;6.40;;
56255;SDS011;57229;51.432;-2.598;2023-02-28T01:46:30;9.27;;;6.03;;
56255;SDS011;57229;51.432;-2.598;2023-02-28T01:48:59;12.27;;;5.90;;
56255;SDS011;57229;51.432;-2.598;2023-02-28T01:51:41;16.42;;;6.20;;
56255;SDS011;57229;51.432;-2.598;2023-02-28T01:54:31;9.48;;;6.40;;
56255;SDS011;57229;51.432;-2.598;2023-02-28T01:57:15;9.85;;;6.20;;
56255;SDS011;57229;51.432;-2.598;2023-02-28T01:59:52;8.93;;;5.65;;
56255;SDS011;57229;51.432;-2.598;2023-02-28T02:02:33;9.82;;;6.25;;
56255;SDS011;57229;51.432;-2.598;2023-02-28T02:05:08;11.65;;;6.63;;
56255;SDS011;57229;51.432;-2.598;2023-02-28T02:07:42;10.88;;;6.88;;
56255;SDS011;57229;51.432;-2.598;2023-02-28T02:13:33;10.77;;;7.32;;
56255;SDS011;57229;51.432;-2.598;2023-02-28T02:19:08;13.80;;;7.60;;
56255;SDS011;57229;51.432;-2.598;2023-02-28T02:22:28;14.93;;;7.63;;
56255;SDS011;57229;51.432;-2.598;2023-02-28T02:25:30;16.50;;;8.10;;
56255;SDS011;57229;51.432;-2.598;2023-02-28T02:40:00;10.32;;;6.90;;
56255;SDS011;57229;51.432;-2.598;2023-02-28T02:47:43;12.38;;;6.20;;
56255;SDS011;57229;51.432;-2.598;2023-02-28T02:50:26;9.27;;;6.10;;
56255;SDS011;57229;51.432;-2.598;2023-02-28T02:53:15;10.15;;;7.00;;
56255;SDS011;57229;51.432;-2.598;2023-02-28T02:55:46;12.57;;;7.25;;
56255;SDS011;57229;51.432;-2.598;2023-02-28T02:58:22;11.10;;;7.07;;
56255;SDS011;57229;51.432;-2.598;2023-02-28T03:00:57;11.70;;;7.00;;
56255;SDS011;57229;51.432;-2.598;2023-02-28T03:03:26;10.15;;;7.15;;
56255;SDS011;57229;51.432;-2.598;2023-02-28T03:06:01;13.27;;;7.00;;
56255;SDS011;57229;51.432;-2.598;2023-02-28T03:08:37;14.13;;;7.07;;
56255;SDS011;57229;51.432;-2.598;2023-02-28T03:11:07;13.48;;;7.28;;
56255;SDS011;57229;51.432;-2.598;2023-02-28T03:30:38;15.77;;;7.47;;
56255;SDS011;57229;51.432;-2.598;2023-02-28T03:33:21;13.90;;;6.88;;
56255;SDS011;57229;51.432;-2.598;2023-02-28T03:36:10;16.98;;;7.80;;
56255;SDS011;57229;51.432;-2.598;2023-02-28T03:38:45;16.75;;;7.43;;
56255;SDS011;57229;51.432;-2.598;2023-02-28T03:41:19;14.10;;;7.27;;
56255;SDS011;57229;51.432;-2.598;2023-02-28T03:44:17;10.68;;;7.03;;
56255;SDS011;57229;51.432;-2.598;2023-02-28T03:46:52;16.63;;;7.30;;
56255;SDS011;57229;51.432;-2.598;2023-02-28T03:49:27;12.63;;;7.75;;
56255;SDS011;57229;51.432;-2.598;2023-02-28T03:51:58;12.57;;;7.50;;
56255;SDS011;57229;51.432;-2.598;2023-02-28T03:54:34;11.90;;;7.30;;
56255;SDS011;57229;51.432;-2.598;2023-02-28T03:59:57;12.77;;;7.47;;
56255;SDS011;57229;51.432;-2.598;2023-02-28T04:02:31;13.35;;;7.35;;
56255;SDS011;57229;51.432;-2.598;2023-02-28T04:04:57;15.05;;;7.25;;
56255;SDS011;57229;51.432;-2.598;2023-02-28T04:07:24;13.70;;;7.72;;
56255;SDS011;57229;51.432;-2.598;2023-02-28T04:09:53;12.65;;;7.22;;
56255;SDS011;57229;51.432;-2.598;2023-02-28T04:12:19;12.43;;;7.15;;
56255;SDS011;57229;51.432;-2.598;2023-02-28T04:14:48;14.98;;;8.10;;
56255;SDS011;57229;51.432;-2.598;2023-02-28T04:17:14;13.27;;;7.88;;
56255;SDS011;57229;51.432;-2.598;2023-02-28T04:19:40;17.23;;;8.35;;
56255;SDS011;57229;51.432;-2.598;2023-02-28T04:22:07;13.30;;;7.90;;
56255;SDS011;57229;51.432;-2.598;2023-02-28T04:24:33;15.50;;;7.65;;
56255;SDS011;57229;51.432;-2.598;2023-02-28T04:26:59;14.00;;;7.47;;
56255;SDS011;57229;51.432;-2.598;2023-02-28T04:29:27;18.55;;;8.15;;
56255;SDS011;57229;51.432;-2.598;2023-02-28T04:31:55;14.70;;;8.05;;
56255;SDS011;57229;51.432;-2.598;2023-02-28T04:34:24;14.77;;;7.32;;
56255;SDS011;57229;51.432;-2.598;2023-02-28T04:36:51;13.43;;;7.22;;
56255;SDS011;57229;51.432;-2.598;2023-02-28T04:39:20;14.52;;;7.30;;
56255;SDS011;57229;51.432;-2.598;2023-02-28T04:41:47;12.38;;;7.15;;
56255;SDS011;57229;51.432;-2.598;2023-02-28T04:44:13;11.70;;;6.88;;
56255;SDS011;57229;51.432;-2.598;2023-02-28T04:46:39;13.93;;;7.28;;
56255;SDS011;57229;51.432;-2.598;2023-02-28T04:49:05;10.93;;;6.55;;
56255;SDS011;57229;51.432;-2.598;2023-02-28T04:51:31;13.45;;;7.07;;
56255;SDS011;57229;51.432;-2.598;2023-02-28T04:53:57;16.17;;;7.68;;
56255;SDS011;57229;51.432;-2.598;2023-02-28T04:56:23;11.65;;;7.45;;
56255;SDS011;57229;51.432;-2.598;2023-02-28T04:58:49;9.82;;;6.85;;
56255;SDS011;57229;51.432;-2.598;2023-02-28T05:01:27;14.43;;;7.68;;
56255;SDS011;57229;51.432;-2.598;2023-02-28T05:03:56;15.23;;;7.40;;
56255;SDS011;57229;51.432;-2.598;2023-02-28T05:06:24;14.48;;;7.57;;
56255;SDS011;57229;51.432;-2.598;2023-02-28T05:08:51;8.98;;;7.20;;
56255;SDS011;57229;51.432;-2.598;2023-02-28T05:11:24;13.32;;;6.75;;
56255;SDS011;57229;51.432;-2.598;2023-02-28T05:13:59;10.25;;;7.25;;
56255;SDS011;57229;51.432;-2.598;2023-02-28T05:16:36;13.77;;;7.28;;
56255;SDS011;57229;51.432;-2.598;2023-02-28T05:19:01;12.88;;;7.10;;
56255;SDS011;57229;51.432;-2.598;2023-02-28T05:21:31;11.43;;;7.20;;
56255;SDS011;57229;51.432;-2.598;2023-02-28T05:24:06;16.02;;;7.53;;
56255;SDS011;57229;51.432;-2.598;2023-02-28T05:26:35;13.07;;;7.40;;
56255;SDS011;57229;51.432;-2.598;2023-02-28T05:29:02;13.05;;;6.78;;
56255;SDS011;57229;51.432;-2.598;2023-02-28T05:31:27;9.63;;;7.38;;
56255;SDS011;57229;51.432;-2.598;2023-02-28T05:33:53;10.30;;;6.82;;
56255;SDS011;57229;51.432;-2.598;2023-02-28T05:36:19;13.88;;;7.20;;
56255;SDS011;57229;51.432;-2.598;2023-02-28T05:38:46;15.98;;;7.10;;
56255;SDS011;57229;51.432;-2.598;2023-02-28T05:41:13;12.40;;;6.50;;
56255;SDS011;57229;51.432;-2.598;2023-02-28T05:43:39;12.48;;;7.38;;
56255;SDS011;57229;51.432;-2.598;2023-02-28T05:46:06;18.17;;;7.22;;
56255;SDS011;57229;51.432;-2.598;2023-02-28T05:48:33;8.95;;;7.32;;
56255;SDS011;57229;51.432;-2.598;2023-02-28T05:51:00;15.30;;;7.68;;
56255;SDS011;57229;51.432;-2.598;2023-02-28T05:53:26;8.82;;;7.05;;
56255;SDS011;57229;51.432;-2.598;2023-02-28T05:55:52;12.15;;;7.80;;
56255;SDS011;57229;51.432;-2.598;2023-02-28T05:58:18;13.23;;;7.65;;
56255;SDS011;57229;51.432;-2.598;2023-02-28T06:00:43;9.60;;;7.40;;
56255;SDS011;57229;51.432;-2.598;2023-02-28T06:03:09;11.25;;;7.05;;
56255;SDS011;57229;51.432;-2.598;2023-02-28T06:05:35;11.82;;;7.63;;
56255;SDS011;57229;51.432;-2.598;2023-02-28T06:08:00;12.07;;;7.40;;
56255;SDS011;57229;51.432;-2.598;2023-02-28T06:10:26;12.35;;;7.75;;
56255;SDS011;57229;51.432;-2.598;2023-02-28T06:12:52;13.32;;;7.30;;
56255;SDS011;57229;51.432;-2.598;2023-02-28T06:15:17;10.00;;;7.40;;
56255;SDS011;57229;51.432;-2.598;2023-02-28T06:17:43;12.10;;;8.00;;
56255;SDS011;57229;51.432;-2.598;2023-02-28T06:20:10;9.70;;;7.15;;
56255;SDS011;57229;51.432;-2.598;2023-02-28T06:22:37;12.70;;;7.40;;
56255;SDS011;57229;51.432;-2.598;2023-02-28T06:25:04;12.27;;;7.35;;
56255;SDS011;57229;51.432;-2.598;2023-02-28T06:27:31;12.55;;;7.40;;
56255;SDS011;57229;51.432;-2.598;2023-02-28T06:29:58;12.70;;;7.80;;
56255;SDS011;57229;51.432;-2.598;2023-02-28T06:32:24;9.85;;;7.43;;
56255;SDS011;57229;51.432;-2.598;2023-02-28T06:34:50;13.35;;;7.63;;
56255;SDS011;57229;51.432;-2.598;2023-02-28T06:37:16;11.95;;;7.93;;
56255;SDS011;57229;51.432;-2.598;2023-02-28T06:39:42;11.13;;;7.55;;
56255;SDS011;57229;51.432;-2.598;2023-02-28T06:42:08;13.23;;;8.35;;
56255;SDS011;57229;51.432;-2.598;2023-02-28T06:44:34;12.88;;;8.40;;
56255;SDS011;57229;51.432;-2.598;2023-02-28T06:47:03;13.05;;;7.93;;
56255;SDS011;57229;51.432;-2.598;2023-02-28T06:49:31;15.05;;;8.18;;
56255;SDS011;57229;51.432;-2.598;2023-02-28T06:51:58;11.88;;;8.18;;
56255;SDS011;57229;51.432;-2.598;2023-02-28T06:54:24;12.38;;;8.25;;
56255;SDS011;57229;51.432;-2.598;2023-02-28T06:56:49;14.00;;;8.30;;
56255;SDS011;57229;51.432;-2.598;2023-02-28T06:59:16;14.55;;;8.15;;
56255;SDS011;57229;51.432;-2.598;2023-02-28T07:01:42;13.20;;;8.32;;
56255;SDS011;57229;51.432;-2.598;2023-02-28T07:04:08;11.93;;;8.48;;
56255;SDS011;57229;51.432;-2.598;2023-02-28T07:06:33;13.05;;;8.15;;
56255;SDS011;57229;51.432;-2.598;2023-02-28T07:08:59;14.60;;;9.80;;
56255;SDS011;57229;51.432;-2.598;2023-02-28T07:11:26;15.95;;;9.90;;
56255;SDS011;57229;51.432;-2.598;2023-02-28T07:13:53;14.73;;;9.80;;
56255;SDS011;57229;51.432;-2.598;2023-02-28T07:16:20;15.00;;;9.85;;
56255;SDS011;57229;51.432;-2.598;2023-02-28T07:18:46;18.05;;;12.88;;
56255;SDS011;57229;51.432;-2.598;2023-02-28T07:21:12;26.17;;;14.43;;
56255;SDS011;57229;51.432;-2.598;2023-02-28T07:23:38;23.00;;;13.90;;
56255;SDS011;57229;51.432;-2.598;2023-02-28T07:26:05;24.23;;;14.35;;
56255;SDS011;57229;51.432;-2.598;2023-02-28T07:28:32;25.33;;;14.95;;
56255;SDS011;57229;51.432;-2.598;2023-02-28T07:31:02;22.85;;;14.65;;
56255;SDS011;57229;51.432;-2.598;2023-02-28T07:33:32;24.67;;;15.68;;
56255;SDS011;57229;51.432;-2.598;2023-02-28T07:36:03;26.80;;;15.60;;
56255;SDS011;57229;51.432;-2.598;2023-02-28T07:38:33;23.98;;;15.98;;
56255;SDS011;57229;51.432;-2.598;2023-02-28T07:41:00;24.92;;;15.18;;
56255;SDS011;57229;51.432;-2.598;2023-02-28T07:43:29;26.40;;;15.70;;
56255;SDS011;57229;51.432;-2.598;2023-02-28T07:45:55;23.67;;;15.10;;
56255;SDS011;57229;51.432;-2.598;2023-02-28T07:48:21;24.60;;;16.25;;
56255;SDS011;57229;51.432;-2.598;2023-02-28T07:50:53;22.20;;;15.38;;
56255;SDS011;57229;51.432;-2.598;2023-02-28T07:53:23;23.55;;;15.23;;
56255;SDS011;57229;51.432;-2.598;2023-02-28T07:55:48;24.35;;;15.23;;
56255;SDS011;57229;51.432;-2.598;2023-02-28T07:58:14;23.50;;;15.20;;
56255;SDS011;57229;51.432;-2.598;2023-02-28T08:00:40;24.05;;;14.60;;
56255;SDS011;57229;51.432;-2.598;2023-02-28T08:03:05;21.33;;;14.18;;
56255;SDS011;57229;51.432;-2.598;2023-02-28T08:05:31;21.27;;;13.70;;
56255;SDS011;57229;51.432;-2.598;2023-02-28T08:07:56;26.52;;;14.45;;
56255;SDS011;57229;51.432;-2.598;2023-02-28T08:10:22;20.10;;;13.10;;
56255;SDS011;57229;51.432;-2.598;2023-02-28T08:12:49;24.55;;;14.82;;
56255;SDS011;57229;51.432;-2.598;2023-02-28T08:15:14;23.95;;;15.50;;
56255;SDS011;57229;51.432;-2.598;2023-02-28T08:17:40;21.67;;;13.88;;
56255;SDS011;57229;51.432;-2.598;2023-02-28T08:20:06;24.02;;;14.32;;
56255;SDS011;57229;51.432;-2.598;2023-02-28T08:22:32;20.73;;;12.75;;
56255;SDS011;57229;51.432;-2.598;2023-02-28T08:24:58;17.90;;;12.23;;
56255;SDS011;57229;51.432;-2.598;2023-02-28T08:27:24;19.45;;;13.18;;
56255;SDS011;57229;51.432;-2.598;2023-02-28T08:29:49;22.23;;;13.93;;
56255;SDS011;57229;51.432;-2.598;2023-02-28T08:32:15;21.98;;;13.90;;
56255;SDS011;57229;51.432;-2.598;2023-02-28T08:34:40;19.20;;;13.48;;
56255;SDS011;57229;51.432;-2.598;2023-02-28T08:37:06;22.65;;;13.75;;
56255;SDS011;57229;51.432;-2.598;2023-02-28T08:39:35;19.65;;;13.50;;
56255;SDS011;57229;51.432;-2.598;2023-02-28T08:42:01;23.65;;;13.40;;
56255;SDS011;57229;51.432;-2.598;2023-02-28T08:44:28;22.85;;;14.20;;
56255;SDS011;57229;51.432;-2.598;2023-02-28T08:46:54;23.33;;;14.32;;
56255;SDS011;57229;51.432;-2.598;2023-02-28T08:49:19;22.92;;;13.18;;
56255;SDS011;57229;51.432;-2.598;2023-02-28T08:51:45;21.00;;;11.88;;
56255;SDS011;57229;51.432;-2.598;2023-02-28T08:54:11;21.17;;;13.18;;
56255;SDS011;57229;51.432;-2.598;2023-02-28T08:56:37;19.80;;;12.85;;
56255;SDS011;57229;51.432;-2.598;2023-02-28T08:59:04;19.27;;;12.73;;
56255;SDS011;57229;51.432;-2.598;2023-02-28T09:01:30;22.13;;;12.15;;
56255;SDS011;57229;51.432;-2.598;2023-02-28T09:03:56;17.20;;;11.80;;
56255;SDS011;57229;51.432;-2.598;2023-02-28T09:06:23;20.20;;;12.10;;
56255;SDS011;57229;51.432;-2.598;2023-02-28T09:08:50;18.52;;;12.02;;
56255;SDS011;57229;51.432;-2.598;2023-02-28T09:11:17;18.30;;;11.65;;
56255;SDS011;57229;51.432;-2.598;2023-02-28T09:13:44;21.90;;;12.50;;
56255;SDS011;57229;51.432;-2.598;2023-02-28T09:16:12;19.20;;;12.10;;
56255;SDS011;57229;51.432;-2.598;2023-02-28T09:18:39;21.75;;;12.43;;
56255;SDS011;57229;51.432;-2.598;2023-02-28T09:21:06;19.98;;;12.38;;
56255;SDS011;57229;51.432;-2.598;2023-02-28T09:23:33;21.95;;;13.57;;
56255;SDS011;57229;51.432;-2.598;2023-02-28T09:25:59;24.35;;;13.48;;
56255;SDS011;57229;51.432;-2.598;2023-02-28T09:28:25;21.15;;;13.00;;
56255;SDS011;57229;51.432;-2.598;2023-02-28T09:30:52;20.85;;;13.35;;
56255;SDS011;57229;51.432;-2.598;2023-02-28T09:33:19;22.13;;;13.02;;
56255;SDS011;57229;51.432;-2.598;2023-02-28T09:35:49;21.85;;;12.93;;
56255;SDS011;57229;51.432;-2.598;2023-02-28T09:38:16;22.30;;;12.50;;
56255;SDS011;57229;51.432;-2.598;2023-02-28T09:40:53;20.45;;;13.15;;
56255;SDS011;57229;51.432;-2.598;2023-02-28T09:43:24;20.58;;;13.07;;
56255;SDS011;57229;51.432;-2.598;2023-02-28T09:46:18;22.27;;;13.57;;
56255;SDS011;57229;51.432;-2.598;2023-02-28T09:48:45;22.75;;;14.27;;
56255;SDS011;57229;51.432;-2.598;2023-02-28T09:54:15;25.83;;;13.93;;
56255;SDS011;57229;51.432;-2.598;2023-02-28T09:56:44;24.27;;;13.90;;
56255;SDS011;57229;51.432;-2.598;2023-02-28T10:02:19;23.83;;;14.57;;
56255;SDS011;57229;51.432;-2.598;2023-02-28T10:04:59;20.20;;;13.80;;
56255;SDS011;57229;51.432;-2.598;2023-02-28T10:12:52;19.65;;;13.23;;
56255;SDS011;57229;51.432;-2.598;2023-02-28T10:15:21;20.42;;;13.25;;
56255;SDS011;57229;51.432;-2.598;2023-02-28T10:17:53;18.08;;;12.55;;
56255;SDS011;57229;51.432;-2.598;2023-02-28T10:20:21;16.60;;;11.90;;
56255;SDS011;57229;51.432;-2.598;2023-02-28T10:23:16;19.77;;;13.05;;
56255;SDS011;57229;51.432;-2.598;2023-02-28T10:26:04;19.30;;;12.43;;
56255;SDS011;57229;51.432;-2.598;2023-02-28T10:28:36;18.30;;;11.65;;
56255;SDS011;57229;51.432;-2.598;2023-02-28T10:31:02;16.67;;;11.20;;
56255;SDS011;57229;51.432;-2.598;2023-02-28T10:33:29;18.52;;;12.05;;
56255;SDS011;57229;51.432;-2.598;2023-02-28T10:35:59;16.88;;;11.70;;
56255;SDS011;57229;51.432;-2.598;2023-02-28T10:38:34;17.77;;;11.95;;
56255;SDS011;57229;51.432;-2.598;2023-02-28T10:43:39;19.20;;;11.55;;
56255;SDS011;57229;51.432;-2.598;2023-02-28T10:51:10;17.08;;;10.25;;
56255;SDS011;57229;51.432;-2.598;2023-02-28T10:53:54;16.25;;;10.75;;
56255;SDS011;57229;51.432;-2.598;2023-02-28T10:56:21;19.85;;;11.32;;
56255;SDS011;57229;51.432;-2.598;2023-02-28T10:58:52;16.52;;;11.77;;
56255;SDS011;57229;51.432;-2.598;2023-02-28T11:04:03;20.33;;;11.93;;
56255;SDS011;57229;51.432;-2.598;2023-02-28T11:06:43;16.27;;;11.30;;
56255;SDS011;57229;51.432;-2.598;2023-02-28T11:09:20;19.63;;;11.18;;
56255;SDS011;57229;51.432;-2.598;2023-02-28T11:11:52;19.10;;;11.60;;
56255;SDS011;57229;51.432;-2.598;2023-02-28T11:14:27;19.75;;;11.27;;
56255;SDS011;57229;51.432;-2.598;2023-02-28T11:17:02;16.98;;;10.90;;
56255;SDS011;57229;51.432;-2.598;2023-02-28T11:19:47;19.77;;;11.70;;
56255;SDS011;57229;51.432;-2.598;2023-02-28T11:22:17;17.73;;;10.50;;
56255;SDS011;57229;51.432;-2.598;2023-02-28T11:24:46;19.13;;;10.05;;
56255;SDS011;57229;51.432;-2.598;2023-02-28T11:27:25;13.43;;;9.30;;
56255;SDS011;57229;51.432;-2.598;2023-02-28T11:29:54;19.48;;;10.30;;
56255;SDS011;57229;51.432;-2.598;2023-02-28T11:32:20;13.38;;;9.52;;
56255;SDS011;57229;51.432;-2.598;2023-02-28T11:35:12;18.65;;;10.55;;
56255;SDS011;57229;51.432;-2.598;2023-02-28T11:37:42;16.02;;;10.07;;
56255;SDS011;57229;51.432;-2.598;2023-02-28T11:40:18;14.18;;;9.98;;
56255;SDS011;57229;51.432;-2.598;2023-02-28T11:42:51;15.35;;;10.65;;
56255;SDS011;57229;51.432;-2.598;2023-02-28T11:53:48;18.83;;;11.23;;
56255;SDS011;57229;51.432;-2.598;2023-02-28T11:56:25;17.45;;;10.95;;
56255;SDS011;57229;51.432;-2.598;2023-02-28T12:15:31;13.17;;;9.33;;
56255;SDS011;57229;51.432;-2.598;2023-02-28T12:18:14;12.23;;;8.93;;
56255;SDS011;57229;51.432;-2.598;2023-02-28T12:23:50;11.25;;;8.45;;
56255;SDS011;57229;51.432;-2.598;2023-02-28T12:26:34;11.40;;;8.73;;
56255;SDS011;57229;51.432;-2.598;2023-02-28T12:29:23;12.23;;;8.45;;
56255;SDS011;57229;51.432;-2.598;2023-02-28T12:37:38;11.90;;;8.32;;
56255;SDS011;57229;51.432;-2.598;2023-02-28T12:40:18;9.25;;;7.15;;
56255;SDS011;57229;51.432;-2.598;2023-02-28T12:43:08;9.65;;;7.50;;
56255;SDS011;57229;51.432;-2.598;2023-02-28T12:49:00;10.07;;;7.50;;
56255;SDS011;57229;51.432;-2.598;2023-02-28T12:51:17;10.05;;;6.70;;
56255;SDS011;57229;51.432;-2.598;2023-02-28T12:56:36;9.48;;;6.85;;
56255;SDS011;57229;51.432;-2.598;2023-02-28T12:59:19;8.77;;;6.57;;
56255;SDS011;57229;51.432;-2.598;2023-02-28T13:05:17;7.03;;;6.32;;
56255;SDS011;57229;51.432;-2.598;2023-02-28T13:11:07;9.32;;;6.85;;
56255;SDS011;57229;51.432;-2.598;2023-02-28T13:14:00;8.32;;;7.03;;
56255;SDS011;57229;51.432;-2.598;2023-02-28T13:17:18;9.80;;;6.72;;
56255;SDS011;57229;51.432;-2.598;2023-02-28T13:19:33;9.35;;;6.20;;
56255;SDS011;57229;51.432;-2.598;2023-02-28T13:22:01;11.40;;;6.90;;
56255;SDS011;57229;51.432;-2.598;2023-02-28T13:29:30;8.43;;;6.70;;
56255;SDS011;57229;51.432;-2.598;2023-02-28T13:34:30;10.20;;;7.40;;
56255;SDS011;57229;51.432;-2.598;2023-02-28T13:37:43;9.88;;;7.20;;
56255;SDS011;57229;51.432;-2.598;2023-02-28T13:50:28;10.15;;;7.72;;
56255;SDS011;57229;51.432;-2.598;2023-02-28T13:55:53;9.75;;;7.43;;
56255;SDS011;57229;51.432;-2.598;2023-02-28T14:01:14;8.85;;;6.82;;
56255;SDS011;57229;51.432;-2.598;2023-02-28T14:07:02;9.27;;;7.07;;
56255;SDS011;57229;51.432;-2.598;2023-02-28T14:17:54;8.48;;;6.80;;
56255;SDS011;57229;51.432;-2.598;2023-02-28T14:20:21;9.27;;;6.18;;
56255;SDS011;57229;51.432;-2.598;2023-02-28T14:25:52;5.88;;;5.28;;
56255;SDS011;57229;51.432;-2.598;2023-02-28T14:31:15;6.78;;;5.63;;
56255;SDS011;57229;51.432;-2.598;2023-02-28T14:33:58;6.00;;;5.22;;
56255;SDS011;57229;51.432;-2.598;2023-02-28T14:37:09;8.65;;;5.47;;
56255;SDS011;57229;51.432;-2.598;2023-02-28T14:39:41;6.57;;;5.32;;
56255;SDS011;57229;51.432;-2.598;2023-02-28T14:45:16;6.78;;;6.07;;
56255;SDS011;57229;51.432;-2.598;2023-02-28T14:47:46;7.70;;;6.15;;
56255;SDS011;57229;51.432;-2.598;2023-02-28T14:50:21;6.60;;;5.90;;
56255;SDS011;57229;51.432;-2.598;2023-02-28T14:52:54;5.95;;;5.35;;
56255;SDS011;57229;51.432;-2.598;2023-02-28T14:55:23;7.25;;;6.55;;
56255;SDS011;57229;51.432;-2.598;2023-02-28T14:57:57;6.95;;;5.63;;
56255;SDS011;57229;51.432;-2.598;2023-02-28T15:00:28;6.15;;;5.57;;
56255;SDS011;57229;51.432;-2.598;2023-02-28T15:02:56;6.30;;;5.63;;
56255;SDS011;57229;51.432;-2.598;2023-02-28T15:05:25;7.32;;;5.45;;
56255;SDS011;57229;51.432;-2.598;2023-02-28T15:08:29;7.30;;;5.28;;
56255;SDS011;57229;51.432;-2.598;2023-02-28T15:13:34;9.50;;;5.93;;
56255;SDS011;57229;51.432;-2.598;2023-02-28T15:16:02;5.28;;;4.80;;
56255;SDS011;57229;51.432;-2.598;2023-02-28T15:21:04;6.20;;;5.70;;
56255;SDS011;57229;51.432;-2.598;2023-02-28T15:23:36;7.40;;;5.40;;
56255;SDS011;57229;51.432;-2.598;2023-02-28T15:26:02;5.63;;;5.13;;
56255;SDS011;57229;51.432;-2.598;2023-02-28T15:28:29;6.20;;;5.60;;
56255;SDS011;57229;51.432;-2.598;2023-02-28T15:30:59;10.32;;;5.47;;
56255;SDS011;57229;51.432;-2.598;2023-02-28T15:33:47;7.97;;;5.85;;
56255;SDS011;57229;51.432;-2.598;2023-02-28T15:36:29;7.03;;;5.10;;
56255;SDS011;57229;51.432;-2.598;2023-02-28T15:38:58;7.03;;;6.00;;
56255;SDS011;57229;51.432;-2.598;2023-02-28T15:41:29;9.75;;;5.88;;
56255;SDS011;57229;51.432;-2.598;2023-02-28T15:46:57;16.30;;;8.40;;
56255;SDS011;57229;51.432;-2.598;2023-02-28T15:49:44;10.05;;;6.07;;
56255;SDS011;57229;51.432;-2.598;2023-02-28T15:52:37;9.52;;;5.70;;
56255;SDS011;57229;51.432;-2.598;2023-02-28T15:55:16;5.55;;;5.05;;
56255;SDS011;57229;51.432;-2.598;2023-02-28T15:57:49;6.07;;;5.47;;
56255;SDS011;57229;51.432;-2.598;2023-02-28T16:00:19;5.90;;;5.30;;
56255;SDS011;57229;51.432;-2.598;2023-02-28T16:02:47;6.75;;;5.28;;
56255;SDS011;57229;51.432;-2.598;2023-02-28T16:07:53;5.82;;;5.32;;
56255;SDS011;57229;51.432;-2.598;2023-02-28T16:10:23;5.18;;;4.78;;
56255;SDS011;57229;51.432;-2.598;2023-02-28T16:12:52;5.50;;;5.00;;
56255;SDS011;57229;51.432;-2.598;2023-02-28T16:15:21;7.80;;;4.70;;
56255;SDS011;57229;51.432;-2.598;2023-02-28T16:17:47;5.35;;;4.80;;
56255;SDS011;57229;51.432;-2.598;2023-02-28T16:20:15;6.40;;;5.20;;
56255;SDS011;57229;51.432;-2.598;2023-02-28T16:22:44;5.60;;;5.10;;
56255;SDS011;57229;51.432;-2.598;2023-02-28T16:25:14;5.95;;;5.45;;
56255;SDS011;57229;51.432;-2.598;2023-02-28T16:27:41;9.40;;;5.18;;
56255;SDS011;57229;51.432;-2.598;2023-02-28T16:30:14;5.82;;;5.28;;
56255;SDS011;57229;51.432;-2.598;2023-02-28T16:32:51;5.60;;;5.10;;
56255;SDS011;57229;51.432;-2.598;2023-02-28T16:35:19;6.00;;;5.40;;
56255;SDS011;57229;51.432;-2.598;2023-02-28T16:37:45;5.97;;;5.38;;
56255;SDS011;57229;51.432;-2.598;2023-02-28T16:40:15;5.93;;;5.28;;
56255;SDS011;57229;51.432;-2.598;2023-02-28T16:42:42;5.45;;;5.05;;
56255;SDS011;57229;51.432;-2.598;2023-02-28T16:45:31;10.90;;;5.53;;
56255;SDS011;57229;51.432;-2.598;2023-02-28T16:47:57;5.78;;;5.20;;
56255;SDS011;57229;51.432;-2.598;2023-02-28T16:50:24;7.57;;;5.22;;
56255;SDS011;57229;51.432;-2.598;2023-02-28T16:52:52;6.40;;;4.85;;
56255;SDS011;57229;51.432;-2.598;2023-02-28T16:55:19;5.68;;;4.95;;
56255;SDS011;57229;51.432;-2.598;2023-02-28T16:57:53;5.15;;;4.70;;
56255;SDS011;57229;51.432;-2.598;2023-02-28T17:00:21;5.68;;;5.10;;
56255;SDS011;57229;51.432;-2.598;2023-02-28T17:02:55;5.00;;;4.60;;
56255;SDS011;57229;51.432;-2.598;2023-02-28T17:05:21;5.30;;;4.80;;
56255;SDS011;57229;51.432;-2.598;2023-02-28T17:07:48;5.90;;;4.57;;
56255;SDS011;57229;51.432;-2.598;2023-02-28T17:10:22;5.15;;;4.65;;
56255;SDS011;57229;51.432;-2.598;2023-02-28T17:12:50;5.40;;;4.90;;
56255;SDS011;57229;51.432;-2.598;2023-02-28T17:15:17;5.40;;;5.00;;
56255;SDS011;57229;51.432;-2.598;2023-02-28T17:17:44;7.40;;;4.93;;
56255;SDS011;57229;51.432;-2.598;2023-02-28T17:20:15;6.57;;;5.55;;
56255;SDS011;57229;51.432;-2.598;2023-02-28T17:22:46;5.33;;;4.83;;
56255;SDS011;57229;51.432;-2.598;2023-02-28T17:25:12;5.70;;;5.10;;
56255;SDS011;57229;51.432;-2.598;2023-02-28T17:27:37;5.95;;;5.07;;
56255;SDS011;57229;51.432;-2.598;2023-02-28T17:30:13;6.88;;;5.07;;
56255;SDS011;57229;51.432;-2.598;2023-02-28T17:32:41;5.57;;;4.82;;